createdAt,value
2019-03-30T00:00:24.321Z,77.75
2019-03-30T00:01:24.312Z,77.71
2019-03-30T00:02:24.298Z,78.53
2019-03-30T00:03:24.318Z,78.43
2019-03-30T00:04:24.274Z,77.81
2019-03-30T00:05:24.262Z,77.71
2019-03-30T00:06:24.350Z,77.71
2019-03-30T00:07:24.240Z,78.23
2019-03-30T00:08:24.228Z,77.92
2019-03-30T00:09:24.233Z,78.36
2019-03-30T00:10:24.207Z,78.27
2019-03-30T00:11:24.196Z,78.27
2019-03-30T00:12:24.185Z,78.16
2019-03-30T00:13:24.173Z,78.78
2019-03-30T00:14:24.196Z,78.57
2019-03-30T00:15:24.150Z,79.08
2019-03-30T00:16:24.140Z,79.39
2019-03-30T00:17:24.127Z,79.60
2019-03-30T00:18:24.121Z,79.70
2019-03-30T00:19:34.377Z,78.98
2019-03-30T00:20:25.131Z,79.70
2019-03-30T00:21:24.082Z,80.01
2019-03-30T00:22:24.071Z,79.74
2019-03-30T00:23:24.059Z,80.05
2019-03-30T00:24:24.050Z,79.74
2019-03-30T00:25:24.065Z,79.84
2019-03-30T00:26:24.032Z,79.94
2019-03-30T00:27:24.014Z,79.63
2019-03-30T00:28:24.003Z,79.74
2019-03-30T00:29:23.993Z,79.53
2019-03-30T00:30:23.984Z,79.43
2019-03-30T00:31:23.984Z,79.53
2019-03-30T00:32:23.958Z,79.84
2019-03-30T00:33:23.946Z,79.63
2019-03-30T00:34:23.935Z,79.63
2019-03-30T00:35:23.924Z,79.84
2019-03-30T00:36:23.940Z,79.94
2019-03-30T00:37:23.906Z,79.84
2019-03-30T00:38:23.892Z,79.60
2019-03-30T00:39:23.883Z,79.63
2019-03-30T00:40:23.869Z,78.92
2019-03-30T00:41:23.856Z,79.53
2019-03-30T00:42:23.862Z,79.12
2019-03-30T00:43:23.835Z,78.88
2019-03-30T00:44:23.822Z,78.71
2019-03-30T00:45:23.813Z,78.57
2019-03-30T00:46:23.801Z,78.71
2019-03-30T00:47:23.815Z,78.98
2019-03-30T00:48:23.776Z,78.92
2019-03-30T00:49:23.768Z,78.57
2019-03-30T00:50:23.754Z,78.71
2019-03-30T00:51:23.746Z,78.61
2019-03-30T00:52:23.733Z,78.71
2019-03-30T00:53:23.737Z,78.57
2019-03-30T00:54:23.717Z,78.92
2019-03-30T00:55:23.699Z,78.92
2019-03-30T00:56:23.686Z,78.61
2019-03-30T00:57:23.676Z,78.61
2019-03-30T00:58:25.638Z,78.61
2019-03-30T00:59:23.654Z,78.61
2019-03-30T01:00:23.642Z,78.40
2019-03-30T01:01:23.631Z,78.61
2019-03-30T01:02:31.885Z,78.71
2019-03-30T01:03:23.608Z,78.85
2019-03-30T01:04:23.613Z,78.61
2019-03-30T01:05:23.587Z,79.05
2019-03-30T01:06:23.576Z,79.05
2019-03-30T01:07:31.929Z,78.96
2019-03-30T01:08:23.553Z,79.05
2019-03-30T01:09:23.572Z,79.16
2019-03-30T01:10:23.532Z,79.36
2019-03-30T01:11:23.519Z,79.47
2019-03-30T01:12:23.509Z,79.47
2019-03-30T01:13:23.497Z,79.57
2019-03-30T01:14:23.484Z,79.57
2019-03-30T01:15:23.493Z,79.47
2019-03-30T01:16:23.464Z,79.61
2019-03-30T01:17:23.452Z,79.81
2019-03-30T01:18:23.444Z,79.71
2019-03-30T01:19:23.429Z,79.50
2019-03-30T01:20:23.446Z,79.40
2019-03-30T01:21:23.406Z,79.81
2019-03-30T01:22:23.395Z,79.71
2019-03-30T01:23:23.386Z,79.91
2019-03-30T01:24:23.373Z,79.91
2019-03-30T01:25:23.365Z,80.26
2019-03-30T01:26:23.367Z,80.02
2019-03-30T01:27:23.340Z,79.81
2019-03-30T01:28:23.329Z,80.05
2019-03-30T01:29:23.318Z,80.16
2019-03-30T01:30:23.788Z,80.26
2019-03-30T01:31:23.311Z,79.95
2019-03-30T01:32:23.286Z,80.26
2019-03-30T01:33:23.275Z,80.16
2019-03-30T01:34:23.261Z,80.16
2019-03-30T01:35:23.324Z,80.16
2019-03-30T01:36:23.268Z,79.85
2019-03-30T01:37:23.236Z,80.36
2019-03-30T01:38:23.220Z,80.26
2019-03-30T01:39:23.223Z,80.47
2019-03-30T01:40:23.197Z,80.47
2019-03-30T01:41:23.184Z,80.81
2019-03-30T01:42:23.188Z,80.51
2019-03-30T01:43:23.161Z,80.47
2019-03-30T01:44:23.151Z,80.26
2019-03-30T01:45:23.138Z,80.61
2019-03-30T01:46:23.125Z,80.47
2019-03-30T01:47:23.147Z,81.02
2019-03-30T01:48:23.105Z,81.12
2019-03-30T01:49:23.094Z,81.12
2019-03-30T01:50:23.081Z,81.02
2019-03-30T01:51:23.070Z,81.12
2019-03-30T01:52:23.058Z,81.12
2019-03-30T01:53:23.065Z,81.43
2019-03-30T01:54:23.036Z,81.12
2019-03-30T01:55:23.025Z,80.91
2019-03-30T01:56:23.014Z,81.12
2019-03-30T01:57:23.006Z,81.12
2019-03-30T01:58:23.019Z,81.12
2019-03-30T01:59:22.982Z,81.12
2019-03-30T02:00:22.973Z,81.12
2019-03-30T02:01:22.958Z,81.12
2019-03-30T02:02:22.947Z,81.23
2019-03-30T02:03:22.936Z,81.12
2019-03-30T02:04:22.943Z,81.23
2019-03-30T02:05:22.922Z,81.16
2019-03-30T02:06:22.902Z,81.23
2019-03-30T02:07:22.891Z,81.16
2019-03-30T02:08:22.884Z,81.47
2019-03-30T02:09:22.888Z,81.57
2019-03-30T02:10:22.860Z,81.37
2019-03-30T02:11:22.848Z,81.67
2019-03-30T02:12:22.836Z,81.57
2019-03-30T02:13:22.824Z,81.57
2019-03-30T02:14:22.838Z,81.57
2019-03-30T02:15:22.803Z,81.67
2019-03-30T02:16:22.795Z,81.57
2019-03-30T02:17:22.778Z,81.77
2019-03-30T02:18:22.768Z,81.47
2019-03-30T02:19:22.757Z,81.57
2019-03-30T02:20:30.704Z,81.77
2019-03-30T02:21:23.732Z,81.77
2019-03-30T02:22:22.722Z,81.88
2019-03-30T02:23:22.711Z,81.67
2019-03-30T02:24:22.699Z,81.98
2019-03-30T02:25:22.716Z,81.47
2019-03-30T02:26:22.677Z,81.47
2019-03-30T02:27:22.669Z,82.02
2019-03-30T02:28:22.655Z,81.61
2019-03-30T02:29:22.642Z,82.09
2019-03-30T02:30:22.632Z,81.67
2019-03-30T02:31:22.644Z,81.98
2019-03-30T02:32:22.636Z,81.92
2019-03-30T02:33:22.598Z,82.02
2019-03-30T02:34:22.593Z,81.77
2019-03-30T02:35:26.301Z,81.98
2019-03-30T02:36:22.691Z,81.71
2019-03-30T02:37:22.689Z,81.61
2019-03-30T02:38:22.543Z,81.81
2019-03-30T02:39:22.532Z,81.61
2019-03-30T02:40:22.520Z,81.40
2019-03-30T02:41:22.508Z,81.81
2019-03-30T02:42:22.513Z,82.02
2019-03-30T02:43:22.487Z,81.81
2019-03-30T02:44:22.475Z,81.92
2019-03-30T02:45:22.462Z,81.92
2019-03-30T02:46:22.451Z,81.65
2019-03-30T02:47:22.470Z,81.71
2019-03-30T02:48:22.431Z,81.81
2019-03-30T02:49:22.424Z,81.71
2019-03-30T02:50:22.417Z,81.71
2019-03-30T02:51:22.399Z,81.40
2019-03-30T02:52:22.385Z,81.71
2019-03-30T02:53:22.398Z,81.61
2019-03-30T02:54:22.364Z,81.20
2019-03-30T02:55:22.352Z,81.20
2019-03-30T02:56:22.342Z,80.79
2019-03-30T02:57:22.330Z,81.40
2019-03-30T02:58:22.345Z,81.20
2019-03-30T02:59:22.307Z,81.20
2019-03-30T03:00:22.297Z,80.99
2019-03-30T03:01:22.285Z,81.20
2019-03-30T03:02:22.275Z,81.20
2019-03-30T03:03:22.289Z,81.09
2019-03-30T03:04:22.252Z,81.61
2019-03-30T03:05:22.238Z,81.40
2019-03-30T03:06:22.227Z,81.09
2019-03-30T03:07:22.216Z,81.09
2019-03-30T03:08:22.209Z,81.51
2019-03-30T03:09:22.218Z,81.85
2019-03-30T03:10:22.183Z,81.51
2019-03-30T03:11:22.171Z,81.71
2019-03-30T03:12:22.158Z,81.81
2019-03-30T03:13:22.148Z,81.71
2019-03-30T03:14:22.154Z,81.92
2019-03-30T03:15:22.144Z,81.61
2019-03-30T03:16:22.114Z,81.61
2019-03-30T03:17:22.103Z,81.81
2019-03-30T03:18:22.091Z,81.71
2019-03-30T03:19:22.114Z,81.71
2019-03-30T03:20:22.067Z,82.12
2019-03-30T03:21:22.058Z,82.23
2019-03-30T03:22:22.045Z,82.26
2019-03-30T03:23:22.043Z,82.16
2019-03-30T03:24:22.026Z,82.23
2019-03-30T03:25:22.027Z,82.23
2019-03-30T03:26:22.006Z,82.02
2019-03-30T03:27:21.988Z,81.61
2019-03-30T03:28:21.977Z,81.92
2019-03-30T03:29:21.968Z,81.71
2019-03-30T03:30:21.976Z,81.51
2019-03-30T03:31:21.969Z,81.61
2019-03-30T03:32:21.931Z,82.02
2019-03-30T03:33:21.923Z,81.71
2019-03-30T03:34:21.922Z,81.71
2019-03-30T03:35:21.915Z,81.71
2019-03-30T03:36:21.885Z,81.81
2019-03-30T03:37:21.874Z,82.16
2019-03-30T03:38:21.863Z,82.16
2019-03-30T03:39:21.852Z,81.96
2019-03-30T03:40:21.856Z,82.06
2019-03-30T03:41:21.831Z,81.96
2019-03-30T03:42:21.816Z,81.65
2019-03-30T03:43:21.806Z,81.85
2019-03-30T03:44:21.795Z,81.85
2019-03-30T03:45:22.535Z,81.96
2019-03-30T03:46:21.801Z,81.54
2019-03-30T03:47:21.760Z,81.85
2019-03-30T03:48:21.752Z,81.54
2019-03-30T03:49:21.739Z,81.54
2019-03-30T03:50:21.725Z,81.54
2019-03-30T03:51:26.020Z,82.06
2019-03-30T03:52:22.721Z,82.16
2019-03-30T03:53:21.695Z,82.16
2019-03-30T03:54:21.680Z,82.16
2019-03-30T03:55:21.669Z,82.37
2019-03-30T03:56:21.659Z,82.16
2019-03-30T03:57:21.676Z,82.16
2019-03-30T03:58:21.636Z,82.06
2019-03-30T03:59:21.624Z,82.16
2019-03-30T04:00:21.612Z,82.26
2019-03-30T04:01:21.602Z,82.16
2019-03-30T04:02:21.601Z,82.26
2019-03-30T04:03:21.599Z,82.40
2019-03-30T04:04:21.571Z,82.20
2019-03-30T04:05:21.557Z,82.30
2019-03-30T04:06:21.545Z,82.26
2019-03-30T04:07:21.533Z,82.20
2019-03-30T04:08:21.554Z,82.37
2019-03-30T04:09:21.509Z,82.51
2019-03-30T04:10:21.498Z,82.30
2019-03-30T04:11:21.489Z,82.30
2019-03-30T04:12:21.492Z,82.30
2019-03-30T04:13:21.478Z,82.51
2019-03-30T04:14:21.481Z,82.30
2019-03-30T04:15:21.444Z,82.10
2019-03-30T04:16:21.429Z,82.37
2019-03-30T04:17:21.418Z,82.30
2019-03-30T04:18:21.414Z,82.16
2019-03-30T04:19:21.399Z,82.40
2019-03-30T04:20:21.400Z,82.61
2019-03-30T04:21:21.378Z,82.30
2019-03-30T04:22:21.362Z,82.40
2019-03-30T04:23:21.354Z,82.40
2019-03-30T04:24:21.343Z,82.51
2019-03-30T04:25:21.355Z,82.51
2019-03-30T04:26:21.316Z,82.92
2019-03-30T04:27:21.311Z,82.71
2019-03-30T04:28:21.296Z,82.86
2019-03-30T04:29:21.282Z,82.92
2019-03-30T04:30:21.274Z,82.82
2019-03-30T04:31:21.275Z,82.92
2019-03-30T04:32:21.252Z,82.71
2019-03-30T04:33:21.235Z,82.71
2019-03-30T04:34:21.226Z,82.92
2019-03-30T04:35:21.229Z,82.82
2019-03-30T04:36:21.231Z,82.82
2019-03-30T04:37:21.192Z,82.82
2019-03-30T04:38:21.181Z,82.71
2019-03-30T04:39:21.167Z,82.40
2019-03-30T04:40:21.157Z,82.55
2019-03-30T04:41:21.146Z,82.24
2019-03-30T04:42:21.153Z,82.20
2019-03-30T04:43:21.128Z,82.24
2019-03-30T04:44:21.109Z,82.24
2019-03-30T04:45:21.098Z,82.30
2019-03-30T04:46:21.089Z,82.40
2019-03-30T04:47:21.110Z,82.24
2019-03-30T04:48:21.069Z,82.14
2019-03-30T04:49:21.059Z,82.14
2019-03-30T04:50:21.048Z,82.14
2019-03-30T04:51:21.034Z,82.24
2019-03-30T04:52:21.021Z,82.03
2019-03-30T04:53:21.028Z,82.24
2019-03-30T04:54:20.999Z,82.20
2019-03-30T04:55:20.985Z,82.24
2019-03-30T04:56:20.977Z,81.72
2019-03-30T04:57:20.966Z,82.24
2019-03-30T04:58:20.984Z,82.24
2019-03-30T04:59:20.955Z,81.93
2019-03-30T05:00:20.931Z,82.24
2019-03-30T05:01:20.918Z,82.24
2019-03-30T05:02:20.923Z,81.93
2019-03-30T05:03:20.895Z,82.03
2019-03-30T05:04:20.910Z,81.72
2019-03-30T05:05:20.875Z,81.82
2019-03-30T05:06:20.861Z,81.93
2019-03-30T05:07:20.849Z,82.03
2019-03-30T05:08:20.837Z,81.72
2019-03-30T05:09:20.826Z,81.72
2019-03-30T05:10:20.833Z,81.72
2019-03-30T05:11:20.803Z,81.51
2019-03-30T05:12:21.491Z,81.79
2019-03-30T05:13:20.782Z,81.27
2019-03-30T05:14:20.771Z,81.62
2019-03-30T05:15:20.789Z,81.27
2019-03-30T05:16:20.747Z,81.21
2019-03-30T05:17:20.736Z,81.27
2019-03-30T05:18:20.725Z,81.27
2019-03-30T05:19:20.717Z,81.27
2019-03-30T05:20:20.705Z,81.89
2019-03-30T05:21:20.718Z,81.68
2019-03-30T05:22:20.679Z,81.89
2019-03-30T05:23:20.671Z,81.17
2019-03-30T05:24:20.657Z,81.27
2019-03-30T05:25:20.645Z,81.27
2019-03-30T05:26:20.633Z,81.27
2019-03-30T05:27:20.646Z,81.27
2019-03-30T05:28:20.611Z,81.27
2019-03-30T05:29:20.599Z,81.58
2019-03-30T05:30:20.589Z,81.48
2019-03-30T05:31:20.576Z,81.17
2019-03-30T05:32:20.593Z,80.96
2019-03-30T05:33:20.553Z,80.55
2019-03-30T05:34:20.542Z,80.76
2019-03-30T05:35:20.534Z,80.34
2019-03-30T05:36:20.519Z,80.04
2019-03-30T05:37:20.509Z,80.34
2019-03-30T05:38:20.513Z,80.34
2019-03-30T05:39:20.486Z,80.24
2019-03-30T05:40:20.475Z,80.10
2019-03-30T05:41:20.463Z,80.10
2019-03-30T05:42:20.452Z,80.30
2019-03-30T05:43:20.467Z,80.62
2019-03-30T05:44:20.429Z,79.58
2019-03-30T05:45:20.420Z,80.51
2019-03-30T05:46:20.406Z,79.79
2019-03-30T05:47:20.394Z,79.69
2019-03-30T05:48:20.383Z,80.62
2019-03-30T05:49:20.389Z,79.79
2019-03-30T05:50:20.362Z,80.10
2019-03-30T05:51:20.350Z,80.10
2019-03-30T05:52:26.548Z,79.69
2019-03-30T05:53:21.330Z,79.90
2019-03-30T05:54:20.345Z,80.20
2019-03-30T05:55:20.304Z,80.00
2019-03-30T05:56:20.302Z,79.34
2019-03-30T05:57:20.282Z,80.16
2019-03-30T05:58:20.271Z,79.44
2019-03-30T05:59:20.262Z,78.93
2019-03-30T06:00:20.265Z,78.93
2019-03-30T06:01:20.241Z,78.62
2019-03-30T06:02:20.227Z,78.52
2019-03-30T06:03:20.213Z,78.52
2019-03-30T06:04:20.203Z,77.97
2019-03-30T06:05:20.259Z,78.69
2019-03-30T06:06:20.183Z,78.58
2019-03-30T06:07:20.172Z,78.48
2019-03-30T06:08:20.159Z,77.93
2019-03-30T06:09:20.147Z,77.83
2019-03-30T06:10:20.133Z,77.72
2019-03-30T06:11:20.151Z,77.21
2019-03-30T06:12:20.113Z,77.11
2019-03-30T06:13:20.105Z,76.18
2019-03-30T06:14:20.092Z,76.35
2019-03-30T06:15:20.079Z,76.04
2019-03-30T06:16:20.067Z,75.73
2019-03-30T06:17:20.078Z,75.52
2019-03-30T06:18:20.048Z,75.08
2019-03-30T06:19:20.035Z,74.87
2019-03-30T06:20:20.023Z,74.63
2019-03-30T06:21:20.012Z,74.43
2019-03-30T06:22:20.017Z,74.08
2019-03-30T06:23:19.990Z,73.57
2019-03-30T06:24:19.979Z,73.47
2019-03-30T06:25:19.971Z,73.33
2019-03-30T06:26:20.001Z,73.13
2019-03-30T06:27:19.972Z,73.13
2019-03-30T06:28:19.936Z,72.61
2019-03-30T06:29:19.922Z,72.61
2019-03-30T06:30:19.913Z,72.72
2019-03-30T06:31:19.899Z,72.82
2019-03-30T06:32:19.886Z,72.38
2019-03-30T06:33:19.903Z,72.06
2019-03-30T06:34:19.867Z,71.86
2019-03-30T06:35:19.858Z,71.42
2019-03-30T06:36:19.842Z,71.21
2019-03-30T06:37:19.833Z,71.01
2019-03-30T06:38:19.819Z,70.46
2019-03-30T06:39:19.823Z,69.74
2019-03-30T06:40:19.796Z,70.56
2019-03-30T06:41:19.786Z,69.37
2019-03-30T06:42:19.773Z,68.52
2019-03-30T06:43:19.761Z,68.01
2019-03-30T06:44:19.778Z,68.11
2019-03-30T06:45:19.739Z,67.60
2019-03-30T06:46:19.733Z,67.70
2019-03-30T06:47:19.717Z,68.01
2019-03-30T06:48:19.709Z,68.41
2019-03-30T06:49:19.693Z,67.90
2019-03-30T06:50:19.709Z,68.01
2019-03-30T06:51:19.673Z,67.16
2019-03-30T06:52:19.664Z,67.16
2019-03-30T06:53:19.649Z,66.95
2019-03-30T06:54:19.637Z,66.61
2019-03-30T06:55:19.628Z,66.61
2019-03-30T06:56:19.632Z,66.72
2019-03-30T06:57:19.605Z,65.77
2019-03-30T06:58:19.596Z,66.17
2019-03-30T06:59:19.581Z,65.97
2019-03-30T07:00:19.574Z,65.97
2019-03-30T07:01:19.588Z,65.97
2019-03-30T07:02:19.550Z,65.02
2019-03-30T07:03:19.536Z,64.30
2019-03-30T07:04:19.525Z,64.40
2019-03-30T07:05:19.513Z,64.40
2019-03-30T07:06:19.503Z,64.78
2019-03-30T07:07:19.508Z,64.27
2019-03-30T07:08:19.483Z,64.37
2019-03-30T07:09:19.468Z,64.58
2019-03-30T07:10:19.456Z,64.27
2019-03-30T07:11:21.403Z,64.17
2019-03-30T07:12:19.464Z,64.17
2019-03-30T07:13:19.424Z,64.55
2019-03-30T07:14:19.411Z,63.93
2019-03-30T07:15:19.401Z,63.40
2019-03-30T07:16:19.388Z,62.99
2019-03-30T07:17:19.379Z,62.85
2019-03-30T07:18:19.396Z,62.85
2019-03-30T07:19:19.358Z,62.62
2019-03-30T07:20:19.344Z,62.62
2019-03-30T07:21:19.335Z,62.42
2019-03-30T07:22:19.323Z,62.93
2019-03-30T07:23:19.311Z,62.08
2019-03-30T07:24:19.321Z,61.37
2019-03-30T07:25:19.296Z,61.14
2019-03-30T07:26:19.279Z,61.14
2019-03-30T07:27:19.275Z,60.83
2019-03-30T07:28:19.254Z,60.50
2019-03-30T07:29:19.261Z,60.83
2019-03-30T07:30:19.232Z,61.31
2019-03-30T07:31:19.224Z,60.80
2019-03-30T07:32:19.211Z,60.88
2019-03-30T07:33:19.197Z,60.06
2019-03-30T07:34:19.215Z,60.34
2019-03-30T07:35:27.538Z,60.03
2019-03-30T07:36:27.571Z,59.39
2019-03-30T07:37:27.609Z,59.30
2019-03-30T07:38:28.657Z,59.60
2019-03-30T07:39:28.216Z,58.48
2019-03-30T07:40:28.724Z,58.99
2019-03-30T07:41:27.265Z,58.38
2019-03-30T07:42:19.097Z,58.15
2019-03-30T07:43:19.088Z,58.65
2019-03-30T07:44:19.075Z,59.06
2019-03-30T07:45:19.095Z,58.25
2019-03-30T07:46:19.806Z,57.92
2019-03-30T07:47:19.039Z,58.22
2019-03-30T07:48:19.031Z,57.48
2019-03-30T07:49:19.017Z,57.18
2019-03-30T07:50:19.007Z,56.47
2019-03-30T07:51:19.012Z,56.24
2019-03-30T07:52:18.985Z,56.34
2019-03-30T07:53:26.370Z,55.53
2019-03-30T07:54:19.965Z,56.04
2019-03-30T07:55:18.950Z,56.24
2019-03-30T07:56:18.960Z,56.04
2019-03-30T07:57:18.934Z,56.34
2019-03-30T07:58:18.918Z,55.53
2019-03-30T07:59:18.905Z,54.92
2019-03-30T08:00:18.892Z,55.53
2019-03-30T08:01:18.909Z,54.49
2019-03-30T08:02:18.873Z,55.71
2019-03-30T08:03:18.859Z,55.17
2019-03-30T08:04:18.849Z,55.17
2019-03-30T08:05:18.836Z,55.04
2019-03-30T08:06:18.826Z,53.93
2019-03-30T08:07:18.841Z,54.11
2019-03-30T08:08:18.809Z,54.00
2019-03-30T08:09:18.792Z,53.91
2019-03-30T08:10:18.781Z,53.47
2019-03-30T08:11:18.771Z,54.49
2019-03-30T08:12:18.761Z,54.28
2019-03-30T08:13:18.777Z,53.07
2019-03-30T08:14:18.737Z,54.49
2019-03-30T08:15:18.727Z,54.59
2019-03-30T08:16:18.721Z,53.80
2019-03-30T08:17:18.709Z,54.59
2019-03-30T08:18:18.699Z,53.67
2019-03-30T08:19:21.653Z,54.18
2019-03-30T08:20:18.671Z,54.05
2019-03-30T08:21:18.658Z,54.16
2019-03-30T08:22:18.647Z,53.45
2019-03-30T08:23:18.637Z,53.96
2019-03-30T08:24:18.651Z,53.55
2019-03-30T08:25:18.614Z,53.05
2019-03-30T08:26:18.606Z,52.92
2019-03-30T08:27:18.590Z,52.31
2019-03-30T08:28:18.579Z,51.09
2019-03-30T08:29:18.571Z,52.08
2019-03-30T08:30:18.577Z,51.07
2019-03-30T08:31:18.543Z,52.06
2019-03-30T08:32:18.533Z,51.15
2019-03-30T08:33:18.522Z,51.23
2019-03-30T08:34:18.509Z,51.35
2019-03-30T08:35:18.526Z,50.92
2019-03-30T08:36:18.488Z,50.82
2019-03-30T08:37:18.477Z,50.52
2019-03-30T08:38:18.465Z,50.32
2019-03-30T08:39:18.453Z,51.23
2019-03-30T08:40:18.444Z,50.01
2019-03-30T08:41:18.447Z,50.62
2019-03-30T08:42:18.419Z,49.99
2019-03-30T08:43:18.438Z,49.69
2019-03-30T08:44:18.395Z,49.28
2019-03-30T08:45:18.383Z,49.05
2019-03-30T08:46:18.403Z,50.59
2019-03-30T08:47:18.364Z,51.18
2019-03-30T08:48:18.351Z,51.07
2019-03-30T08:49:18.338Z,50.87
2019-03-30T08:50:18.330Z,49.74
2019-03-30T08:51:20.767Z,49.13
2019-03-30T08:52:18.320Z,50.15
2019-03-30T08:53:18.294Z,49.13
2019-03-30T08:54:18.287Z,49.33
2019-03-30T08:55:18.273Z,50.15
2019-03-30T08:56:18.259Z,49.21
2019-03-30T08:57:18.276Z,49.21
2019-03-30T08:58:18.246Z,48.71
2019-03-30T08:59:18.230Z,48.69
2019-03-30T09:00:18.217Z,49.31
2019-03-30T09:01:18.210Z,48.89
2019-03-30T09:02:18.209Z,48.38
2019-03-30T09:03:18.202Z,49.59
2019-03-30T09:04:18.173Z,49.59
2019-03-30T09:05:18.164Z,48.69
2019-03-30T09:06:18.149Z,48.56
2019-03-30T09:07:18.138Z,48.96
2019-03-30T09:08:18.163Z,49.47
2019-03-30T09:09:18.116Z,48.46
2019-03-30T09:10:18.103Z,49.27
2019-03-30T09:11:18.093Z,47.45
2019-03-30T09:12:18.085Z,47.75
2019-03-30T09:13:18.071Z,47.96
2019-03-30T09:14:18.087Z,48.03
2019-03-30T09:15:18.051Z,47.83
2019-03-30T09:16:18.039Z,47.81
2019-03-30T09:17:18.028Z,47.81
2019-03-30T09:18:18.016Z,48.21
2019-03-30T09:19:18.005Z,48.39
2019-03-30T09:20:18.021Z,48.19
2019-03-30T09:21:17.982Z,47.08
2019-03-30T09:22:17.972Z,46.36
2019-03-30T09:23:17.960Z,45.33
2019-03-30T09:24:17.949Z,47.04
2019-03-30T09:25:17.966Z,47.44
2019-03-30T09:26:17.949Z,46.61
2019-03-30T09:27:17.916Z,45.79
2019-03-30T09:28:17.905Z,44.76
2019-03-30T09:29:17.895Z,44.32
2019-03-30T09:30:17.883Z,42.69
2019-03-30T09:31:17.901Z,41.85
2019-03-30T09:32:17.865Z,39.91
2019-03-30T09:33:17.849Z,39.76
2019-03-30T09:34:17.839Z,38.72
2019-03-30T09:35:17.828Z,37.21
2019-03-30T09:36:17.817Z,37.38
2019-03-30T09:37:17.835Z,37.85
2019-03-30T09:38:17.797Z,36.32
2019-03-30T09:39:17.785Z,35.59
2019-03-30T09:40:17.771Z,34.94
2019-03-30T09:41:17.765Z,34.00
2019-03-30T09:42:17.748Z,32.78
2019-03-30T09:43:17.754Z,32.06
2019-03-30T09:44:17.728Z,30.83
2019-03-30T09:45:17.718Z,30.52
2019-03-30T09:46:17.705Z,30.79
2019-03-30T09:47:17.696Z,30.20
2019-03-30T09:48:17.710Z,29.89
2019-03-30T09:49:17.671Z,30.17
2019-03-30T09:50:17.661Z,29.27
2019-03-30T09:51:17.649Z,28.08
2019-03-30T09:52:17.638Z,28.37
2019-03-30T09:53:17.627Z,27.96
2019-03-30T09:54:23.684Z,27.45
2019-03-30T09:55:18.606Z,27.36
2019-03-30T09:56:17.595Z,27.45
2019-03-30T09:57:17.582Z,26.65
2019-03-30T09:58:17.572Z,26.84
2019-03-30T09:59:17.562Z,26.45
2019-03-30T10:00:17.565Z,26.14
2019-03-30T10:01:17.538Z,26.12
2019-03-30T10:02:17.530Z,25.84
2019-03-30T10:03:17.517Z,26.42
2019-03-30T10:04:17.506Z,25.73
2019-03-30T10:05:17.524Z,25.73
2019-03-30T10:06:17.487Z,26.03
2019-03-30T10:07:17.473Z,26.52
2019-03-30T10:08:17.462Z,26.32
2019-03-30T10:09:17.462Z,25.93
2019-03-30T10:10:17.448Z,24.65
2019-03-30T10:11:17.459Z,26.24
2019-03-30T10:12:17.425Z,26.52
2019-03-30T10:13:17.409Z,26.52
2019-03-30T10:14:17.401Z,27.31
2019-03-30T10:15:17.390Z,26.98
2019-03-30T10:16:17.385Z,26.18
2019-03-30T10:17:17.396Z,25.60
2019-03-30T10:18:19.336Z,24.31
2019-03-30T10:19:17.349Z,25.29
2019-03-30T10:20:17.333Z,24.88
2019-03-30T10:21:17.324Z,25.48
2019-03-30T10:22:17.314Z,24.70
2019-03-30T10:23:17.323Z,25.10
2019-03-30T10:24:17.290Z,25.20
2019-03-30T10:25:17.278Z,24.99
2019-03-30T10:26:17.270Z,24.90
2019-03-30T10:27:17.257Z,24.98
2019-03-30T10:28:17.272Z,25.17
2019-03-30T10:29:17.237Z,24.19
2019-03-30T10:30:17.226Z,23.52
2019-03-30T10:31:17.271Z,23.50
2019-03-30T10:32:17.816Z,23.42
2019-03-30T10:33:17.224Z,23.22
2019-03-30T10:34:17.184Z,23.22
2019-03-30T10:35:17.229Z,23.49
2019-03-30T10:36:17.166Z,23.39
2019-03-30T10:37:17.155Z,22.51
2019-03-30T10:38:17.143Z,22.50
2019-03-30T10:39:17.164Z,22.60
2019-03-30T10:40:20.626Z,22.23
2019-03-30T10:41:17.114Z,24.11
2019-03-30T10:42:17.102Z,23.42
2019-03-30T10:43:17.091Z,23.91
2019-03-30T10:44:17.079Z,23.52
2019-03-30T10:45:17.085Z,23.70
2019-03-30T10:46:17.057Z,23.50
2019-03-30T10:47:17.049Z,23.41
2019-03-30T10:48:17.037Z,21.63
2019-03-30T10:49:17.027Z,21.62
2019-03-30T10:50:17.034Z,22.21
2019-03-30T10:51:17.008Z,21.72
2019-03-30T10:52:16.995Z,22.78
2019-03-30T10:53:16.986Z,21.51
2019-03-30T10:54:16.977Z,21.61
2019-03-30T10:55:16.992Z,21.42
2019-03-30T10:56:16.956Z,21.73
2019-03-30T10:57:16.945Z,21.72
2019-03-30T10:58:16.937Z,22.31
2019-03-30T10:59:16.925Z,22.30
2019-03-30T11:00:16.914Z,22.21
2019-03-30T11:01:16.933Z,21.81
2019-03-30T11:02:16.895Z,22.11
2019-03-30T11:03:16.892Z,22.10
2019-03-30T11:04:16.887Z,22.59
2019-03-30T11:05:16.860Z,21.80
2019-03-30T11:06:16.855Z,22.09
2019-03-30T11:07:17.347Z,21.98
2019-03-30T11:08:16.832Z,20.70
2019-03-30T11:09:16.820Z,20.30
2019-03-30T11:10:16.813Z,19.42
2019-03-30T11:11:16.801Z,18.84
2019-03-30T11:12:16.816Z,18.64
2019-03-30T11:13:16.779Z,19.03
2019-03-30T11:14:16.770Z,18.95
2019-03-30T11:15:16.761Z,19.05
2019-03-30T11:16:16.751Z,18.46
2019-03-30T11:17:19.370Z,18.18
2019-03-30T11:18:16.744Z,18.68
2019-03-30T11:19:16.790Z,18.87
2019-03-30T11:20:16.709Z,19.06
2019-03-30T11:21:16.700Z,18.87
2019-03-30T11:22:16.722Z,19.26
2019-03-30T11:23:16.678Z,19.26
2019-03-30T11:24:17.338Z,19.05
2019-03-30T11:25:16.664Z,19.34
2019-03-30T11:26:16.647Z,19.08
2019-03-30T11:27:16.637Z,20.40
2019-03-30T11:28:16.648Z,22.14
2019-03-30T11:29:16.625Z,23.69
2019-03-30T11:30:16.607Z,25.21
2019-03-30T11:31:16.658Z,27.04
2019-03-30T11:32:16.586Z,27.59
2019-03-30T11:33:16.607Z,28.93
2019-03-30T11:34:16.569Z,30.25
2019-03-30T11:35:16.554Z,31.18
2019-03-30T11:36:18.586Z,32.29
2019-03-30T11:37:16.535Z,33.51
2019-03-30T11:38:16.527Z,33.53
2019-03-30T11:39:16.537Z,34.34
2019-03-30T11:40:16.504Z,34.64
2019-03-30T11:41:16.492Z,34.96
2019-03-30T11:42:16.482Z,34.48
2019-03-30T11:43:16.475Z,35.21
2019-03-30T11:44:16.460Z,35.83
2019-03-30T11:45:16.468Z,36.05
2019-03-30T11:46:16.440Z,36.16
2019-03-30T11:47:16.440Z,37.37
2019-03-30T11:48:16.424Z,37.57
2019-03-30T11:49:16.407Z,37.79
2019-03-30T11:50:16.439Z,37.20
2019-03-30T11:51:16.386Z,37.42
2019-03-30T11:52:16.379Z,38.02
2019-03-30T11:53:16.364Z,39.25
2019-03-30T11:54:16.350Z,39.47
2019-03-30T11:55:22.042Z,38.88
2019-03-30T11:56:17.359Z,38.38
2019-03-30T11:57:16.319Z,38.46
2019-03-30T11:58:16.306Z,38.88
2019-03-30T11:59:16.294Z,38.68
2019-03-30T12:00:16.282Z,39.58
2019-03-30T12:01:16.272Z,38.18
2019-03-30T12:02:27.257Z,38.78
2019-03-30T12:03:17.250Z,38.70
2019-03-30T12:04:16.241Z,39.00
2019-03-30T12:05:16.229Z,39.80
2019-03-30T12:06:16.217Z,39.90
2019-03-30T12:07:16.229Z,39.32
2019-03-30T12:08:16.195Z,39.82
2019-03-30T12:09:16.222Z,40.53
2019-03-30T12:10:16.174Z,40.42
2019-03-30T12:11:16.185Z,41.45
2019-03-30T12:12:16.155Z,40.64
2019-03-30T12:13:16.170Z,40.95
2019-03-30T12:14:16.131Z,41.15
2019-03-30T12:15:16.125Z,40.14
2019-03-30T12:16:16.116Z,40.14
2019-03-30T12:17:16.098Z,40.34
2019-03-30T12:18:16.086Z,40.84
2019-03-30T12:19:16.089Z,40.44
2019-03-30T12:20:16.074Z,40.66
2019-03-30T12:21:16.053Z,40.14
2019-03-30T12:22:16.039Z,40.16
2019-03-30T12:23:16.033Z,39.36
2019-03-30T12:24:16.049Z,39.05
2019-03-30T12:25:16.005Z,40.56
2019-03-30T12:26:15.999Z,40.97
2019-03-30T12:27:15.996Z,41.59
2019-03-30T12:28:15.971Z,40.89
2019-03-30T12:29:15.962Z,41.09
2019-03-30T12:30:15.972Z,41.39
2019-03-30T12:31:15.938Z,41.89
2019-03-30T12:32:15.933Z,42.50
2019-03-30T12:33:15.920Z,42.19
2019-03-30T12:34:15.906Z,43.10
2019-03-30T12:35:15.922Z,43.62
2019-03-30T12:36:15.882Z,41.81
2019-03-30T12:37:15.882Z,43.22
2019-03-30T12:38:15.860Z,42.41
2019-03-30T12:39:15.849Z,43.42
2019-03-30T12:40:15.839Z,42.52
2019-03-30T12:41:15.848Z,42.61
2019-03-30T12:42:15.818Z,42.52
2019-03-30T12:43:15.806Z,42.41
2019-03-30T12:44:15.795Z,42.52
2019-03-30T12:45:15.787Z,42.72
2019-03-30T12:46:15.805Z,43.04
2019-03-30T12:47:15.762Z,43.04
2019-03-30T12:48:15.751Z,43.52
2019-03-30T12:49:15.739Z,43.42
2019-03-30T12:50:15.731Z,43.42
2019-03-30T12:51:15.716Z,42.72
2019-03-30T12:52:15.724Z,42.21